createdAt,value
2019-03-29T00:01:08.177Z,15.20
2019-03-29T00:03:34.313Z,15.33
2019-03-29T00:06:00.964Z,15.10
2019-03-29T00:08:26.976Z,16.03
2019-03-29T00:10:52.989Z,16.20
2019-03-29T00:13:19.013Z,16.27
2019-03-29T00:15:45.004Z,15.80
2019-03-29T00:18:11.017Z,15.37
2019-03-29T00:20:37.020Z,16.97
2019-03-29T00:23:03.013Z,15.60
2019-03-29T00:25:29.087Z,16.30
2019-03-29T00:27:55.084Z,15.43
2019-03-29T00:30:21.411Z,17.03
2019-03-29T00:32:48.210Z,15.87
2019-03-29T00:35:14.253Z,16.80
2019-03-29T00:37:52.952Z,17.30
2019-03-29T00:40:08.259Z,15.80
2019-03-29T00:42:34.374Z,15.50
2019-03-29T00:45:00.442Z,15.43
2019-03-29T00:47:26.514Z,16.90
2019-03-29T00:49:52.592Z,16.50
2019-03-29T00:52:18.629Z,15.30
2019-03-29T00:54:44.746Z,15.83
2019-03-29T00:57:10.787Z,15.60
2019-03-29T00:59:36.778Z,15.10
2019-03-29T01:02:02.790Z,15.03
2019-03-29T01:04:29.110Z,15.63
2019-03-29T01:06:55.347Z,15.73
2019-03-29T01:09:21.361Z,15.20
2019-03-29T01:11:47.361Z,16.23
2019-03-29T01:14:13.359Z,15.03
2019-03-29T01:16:39.486Z,13.83
2019-03-29T01:19:05.467Z,14.80
2019-03-29T01:21:31.486Z,14.70
2019-03-29T01:23:57.566Z,15.70
2019-03-29T01:26:23.707Z,15.87
2019-03-29T01:28:49.901Z,13.67
2019-03-29T01:31:16.007Z,13.07
2019-03-29T01:33:42.000Z,13.33
2019-03-29T01:36:08.035Z,15.50
2019-03-29T01:38:34.135Z,13.70
2019-03-29T01:41:01.001Z,13.83
2019-03-29T01:43:27.128Z,16.07
2019-03-29T01:45:53.116Z,14.20
2019-03-29T01:48:19.404Z,16.00
2019-03-29T01:50:45.394Z,14.80
2019-03-29T01:53:12.042Z,15.73
2019-03-29T01:55:40.211Z,15.53
2019-03-29T01:58:06.226Z,14.50
2019-03-29T02:00:33.136Z,16.77
2019-03-29T02:02:59.455Z,15.57
2019-03-29T02:05:25.444Z,14.23
2019-03-29T02:07:51.422Z,15.60
2019-03-29T02:10:17.427Z,15.10
2019-03-29T02:12:43.418Z,16.30
2019-03-29T02:15:09.624Z,15.23
2019-03-29T02:17:36.115Z,18.53
2019-03-29T02:20:05.184Z,16.67
2019-03-29T02:22:31.200Z,15.57
2019-03-29T02:24:57.309Z,15.77
2019-03-29T02:27:23.296Z,15.30
2019-03-29T02:29:49.334Z,15.10
2019-03-29T02:32:15.376Z,14.67
2019-03-29T02:34:43.543Z,14.83
2019-03-29T02:37:09.369Z,13.03
2019-03-29T02:39:35.454Z,13.03
2019-03-29T02:42:01.480Z,14.13
2019-03-29T02:44:27.611Z,14.07
2019-03-29T02:46:54.202Z,13.63
2019-03-29T02:49:20.573Z,13.83
2019-03-29T02:51:48.506Z,14.63
2019-03-29T02:54:14.590Z,14.27
2019-03-29T02:56:40.620Z,14.50
2019-03-29T02:59:06.628Z,14.03
2019-03-29T03:01:32.676Z,12.93
2019-03-29T03:03:58.686Z,12.60
2019-03-29T03:06:24.676Z,13.83
2019-03-29T03:08:50.661Z,13.40
2019-03-29T03:11:16.682Z,12.77
2019-03-29T03:13:42.734Z,13.23
2019-03-29T03:16:08.747Z,14.07
2019-03-29T03:18:34.747Z,14.20
2019-03-29T03:21:00.733Z,13.90
2019-03-29T03:23:26.836Z,14.00
2019-03-29T03:25:52.928Z,13.67
2019-03-29T03:28:19.020Z,13.57
2019-03-29T03:30:45.030Z,13.20
2019-03-29T03:33:11.263Z,13.90
2019-03-29T03:35:37.325Z,14.83
2019-03-29T03:38:03.469Z,13.90
2019-03-29T03:40:29.685Z,13.67
2019-03-29T03:42:55.688Z,13.37
2019-03-29T03:45:21.669Z,14.80
2019-03-29T03:47:47.672Z,13.33
2019-03-29T03:50:29.744Z,12.60
2019-03-29T03:52:55.773Z,12.13
2019-03-29T03:55:22.289Z,14.23
2019-03-29T03:57:48.626Z,12.80
2019-03-29T04:00:18.436Z,12.33
2019-03-29T04:02:44.421Z,11.17
2019-03-29T04:05:10.429Z,11.80
2019-03-29T04:07:36.437Z,12.20
2019-03-29T04:10:05.258Z,12.03
2019-03-29T04:12:31.248Z,12.97
2019-03-29T04:14:57.282Z,13.50
2019-03-29T04:17:23.315Z,12.77
2019-03-29T04:19:49.319Z,12.57
2019-03-29T04:22:15.309Z,13.37
2019-03-29T04:24:41.323Z,13.90
2019-03-29T04:27:07.312Z,14.07
2019-03-29T04:29:33.339Z,13.00
2019-03-29T04:31:59.336Z,13.50
2019-03-29T04:34:25.470Z,13.50
2019-03-29T04:36:51.500Z,13.43
2019-03-29T04:39:17.480Z,12.93
2019-03-29T04:41:43.487Z,13.67
2019-03-29T04:44:09.579Z,12.77
2019-03-29T04:46:35.604Z,12.97
2019-03-29T04:49:01.708Z,13.97
2019-03-29T04:51:27.895Z,13.33
2019-03-29T04:53:53.943Z,13.20
2019-03-29T04:56:19.969Z,16.20
2019-03-29T04:58:45.991Z,11.77
2019-03-29T05:01:11.972Z,12.27
2019-03-29T05:03:37.999Z,11.30
2019-03-29T05:06:04.019Z,12.10
2019-03-29T05:08:30.167Z,12.00
2019-03-29T05:10:56.298Z,10.80
2019-03-29T05:13:22.310Z,13.47
2019-03-29T05:15:48.305Z,13.67
2019-03-29T05:18:14.389Z,11.33
2019-03-29T05:20:40.383Z,11.10
2019-03-29T05:23:06.358Z,11.43
2019-03-29T05:25:32.410Z,13.80
2019-03-29T05:27:58.428Z,12.23
2019-03-29T05:30:24.426Z,13.20
2019-03-29T05:32:50.728Z,12.13
2019-03-29T05:35:16.779Z,12.00
2019-03-29T05:37:42.775Z,13.10
2019-03-29T05:40:09.016Z,12.20
2019-03-29T05:42:35.114Z,11.90
2019-03-29T05:45:01.126Z,12.67
2019-03-29T05:47:27.127Z,11.10
2019-03-29T05:49:53.119Z,12.40
2019-03-29T05:52:19.236Z,12.37
2019-03-29T05:54:45.261Z,12.00
2019-03-29T05:57:11.260Z,11.60
2019-03-29T05:59:37.238Z,11.10
2019-03-29T06:02:03.271Z,11.10
2019-03-29T06:04:29.356Z,11.43
2019-03-29T06:06:55.388Z,10.67
2019-03-29T06:09:21.384Z,11.50
2019-03-29T06:11:47.402Z,11.23
2019-03-29T06:14:13.411Z,11.83
2019-03-29T06:16:39.600Z,11.83
2019-03-29T06:19:05.702Z,10.47
2019-03-29T06:21:31.685Z,11.80
2019-03-29T06:23:57.726Z,10.37
2019-03-29T06:26:25.208Z,11.87
2019-03-29T06:28:51.217Z,12.27
2019-03-29T06:31:17.265Z,11.20
2019-03-29T06:33:44.710Z,11.60
2019-03-29T06:36:13.918Z,11.20
2019-03-29T06:38:41.262Z,10.97
2019-03-29T06:41:07.274Z,10.30
2019-03-29T06:43:33.279Z,10.70
2019-03-29T06:45:59.305Z,11.50
2019-03-29T06:48:25.317Z,11.73
2019-03-29T06:50:51.638Z,10.63
2019-03-29T06:53:17.804Z,11.20
2019-03-29T06:55:43.802Z,11.20
2019-03-29T06:58:09.777Z,12.73
2019-03-29T07:00:35.773Z,12.20
2019-03-29T07:03:01.923Z,12.43
2019-03-29T07:05:28.043Z,10.93
2019-03-29T07:07:54.170Z,11.13
2019-03-29T07:10:20.155Z,11.00
2019-03-29T07:12:46.249Z,10.80
2019-03-29T07:15:12.332Z,11.73
2019-03-29T07:17:38.563Z,10.03
2019-03-29T07:20:05.574Z,10.27
2019-03-29T07:22:34.519Z,13.27
2019-03-29T07:24:59.491Z,11.27
2019-03-29T07:27:25.523Z,11.23
2019-03-29T07:29:51.507Z,10.37
2019-03-29T07:32:17.574Z,10.83
2019-03-29T07:34:43.604Z,11.87
2019-03-29T07:37:09.706Z,10.60
2019-03-29T07:39:35.720Z,10.83
2019-03-29T07:42:01.752Z,10.43
2019-03-29T07:44:27.799Z,9.70
2019-03-29T07:46:53.837Z,9.23
2019-03-29T08:16:13.230Z,9.97
2019-03-29T08:18:39.310Z,11.80
2019-03-29T08:21:05.303Z,11.70
2019-03-29T08:23:31.308Z,10.93
2019-03-29T11:35:58.399Z,16.70
2019-03-29T11:46:22.861Z,20.73
2019-03-29T12:14:29.450Z,24.53
2019-03-29T12:47:24.298Z,24.33
2019-03-29T12:50:30.491Z,26.23
2019-03-29T12:52:56.767Z,24.90
2019-03-29T13:08:15.766Z,26.63
2019-03-29T13:10:54.941Z,25.57
2019-03-29T13:13:35.728Z,26.27
2019-03-29T13:26:02.384Z,25.77
2019-03-29T13:29:01.699Z,27.60
2019-03-29T13:34:52.009Z,26.87
2019-03-29T13:37:18.092Z,29.43
2019-03-29T13:40:23.861Z,28.20
2019-03-29T13:43:03.206Z,26.10
2019-03-29T13:45:42.344Z,25.40
2019-03-29T13:48:22.338Z,25.53
2019-03-29T13:51:02.399Z,26.73
2019-03-29T13:53:43.226Z,27.20
2019-03-29T13:59:22.457Z,25.60
2019-03-29T14:05:17.323Z,26.17
2019-03-29T14:07:58.162Z,26.70
2019-03-29T14:10:24.184Z,28.13
2019-03-29T14:12:50.139Z,25.53
2019-03-29T14:15:48.928Z,24.07
2019-03-29T14:25:13.814Z,22.93
2019-03-29T14:30:50.564Z,24.10
2019-03-29T14:33:55.157Z,25.47
2019-03-29T14:36:54.922Z,25.80
2019-03-29T14:39:33.936Z,25.10
2019-03-29T14:42:34.106Z,24.77
2019-03-29T14:45:33.342Z,26.90
2019-03-29T14:47:59.455Z,25.67
2019-03-29T14:50:45.489Z,26.50
2019-03-29T14:53:11.685Z,24.87
2019-03-29T14:55:57.560Z,25.67
2019-03-29T14:58:36.730Z,26.67
2019-03-29T15:14:14.118Z,27.47
2019-03-29T15:16:53.526Z,27.80
2019-03-29T15:22:41.737Z,26.83
2019-03-29T15:25:20.705Z,27.83
2019-03-29T15:27:46.755Z,26.67
2019-03-29T15:30:32.706Z,28.33
2019-03-29T15:33:11.776Z,27.27
2019-03-29T15:48:35.232Z,28.23
2019-03-29T15:51:01.310Z,27.47
2019-03-29T15:53:27.291Z,29.30
2019-03-29T15:55:53.320Z,27.27
2019-03-29T15:58:19.306Z,27.60
2019-03-29T16:00:45.340Z,28.73
2019-03-29T16:03:11.334Z,27.30
2019-03-29T16:05:37.299Z,28.63
2019-03-29T16:08:03.320Z,27.33
2019-03-29T16:10:29.295Z,26.50
2019-03-29T16:12:55.311Z,27.00
2019-03-29T16:15:33.915Z,28.07
2019-03-29T16:17:49.257Z,28.00
2019-03-29T16:20:15.563Z,28.97
2019-03-29T16:22:41.886Z,27.27
2019-03-29T16:25:07.955Z,27.20
2019-03-29T16:27:33.928Z,27.57
2019-03-29T16:29:59.931Z,27.47
2019-03-29T16:32:25.939Z,27.20
2019-03-29T16:34:52.605Z,27.93
2019-03-29T16:37:18.584Z,27.40
2019-03-29T16:39:44.603Z,27.10
2019-03-29T16:42:10.607Z,28.83
2019-03-29T16:44:36.575Z,27.60
2019-03-29T16:47:02.683Z,26.20
2019-03-29T16:49:28.668Z,29.17
2019-03-29T16:51:54.702Z,26.70
2019-03-29T16:54:20.819Z,28.10
2019-03-29T16:56:46.805Z,28.03
2019-03-29T16:59:12.827Z,28.40
2019-03-29T17:01:38.859Z,28.07
2019-03-29T17:04:04.979Z,29.27
2019-03-29T17:06:30.952Z,28.83
2019-03-29T17:08:56.986Z,27.83
2019-03-29T17:11:22.999Z,28.30
2019-03-29T17:13:49.118Z,28.90
2019-03-29T17:16:15.198Z,27.87
2019-03-29T17:18:41.218Z,27.70
2019-03-29T17:21:07.240Z,28.37
2019-03-29T17:23:33.436Z,27.40
2019-03-29T17:25:59.432Z,28.60
2019-03-29T17:28:25.429Z,26.37
2019-03-29T17:30:53.345Z,29.37
2019-03-29T17:33:22.302Z,26.93
2019-03-29T17:35:47.359Z,27.43
2019-03-29T17:38:13.393Z,27.47
2019-03-29T17:40:39.570Z,26.20
2019-03-29T17:43:05.605Z,28.20
2019-03-29T17:45:31.640Z,26.70
2019-03-29T17:47:57.643Z,26.23
2019-03-29T17:50:25.331Z,28.30
2019-03-29T17:52:51.843Z,26.97
2019-03-29T17:55:17.828Z,25.77
2019-03-29T17:57:43.981Z,27.20
2019-03-29T18:00:11.852Z,27.20
2019-03-29T18:02:37.864Z,26.97
2019-03-29T18:05:05.389Z,26.97
2019-03-29T18:07:31.495Z,26.60
2019-03-29T18:09:57.473Z,27.10
2019-03-29T18:12:23.673Z,27.90
2019-03-29T18:14:49.819Z,28.77
2019-03-29T18:17:16.010Z,28.17
2019-03-29T18:19:42.017Z,29.87
2019-03-29T18:22:08.060Z,33.37
2019-03-29T18:24:34.082Z,33.20
2019-03-29T18:27:00.096Z,37.27
2019-03-29T18:29:26.199Z,35.90
2019-03-29T18:31:52.408Z,35.70
2019-03-29T18:34:18.508Z,33.90
2019-03-29T18:36:45.623Z,31.57
2019-03-29T18:39:11.644Z,33.10
2019-03-29T18:41:37.625Z,32.37
2019-03-29T18:44:03.702Z,33.13
2019-03-29T18:46:43.696Z,32.63
2019-03-29T18:48:57.695Z,32.90
2019-03-29T18:51:23.684Z,33.93
2019-03-29T18:53:49.725Z,35.17
2019-03-29T18:56:15.743Z,35.73
2019-03-29T18:58:41.824Z,35.00
2019-03-29T19:01:08.084Z,35.53
2019-03-29T19:03:34.316Z,38.17
2019-03-29T19:06:00.354Z,35.50
2019-03-29T19:08:26.332Z,34.30
2019-03-29T19:10:52.414Z,47.87
2019-03-29T19:13:18.778Z,63.40
2019-03-29T19:15:44.813Z,40.87
2019-03-29T19:18:10.981Z,39.03
2019-03-29T19:20:37.060Z,36.50
2019-03-29T19:23:03.072Z,38.83
2019-03-29T19:25:29.205Z,35.70
2019-03-29T19:27:55.577Z,35.50
2019-03-29T19:30:21.892Z,33.30
2019-03-29T19:32:48.425Z,36.50
2019-03-29T19:35:14.526Z,37.80
2019-03-29T19:37:40.625Z,33.73
2019-03-29T19:40:06.740Z,35.53
2019-03-29T19:42:33.068Z,37.50
2019-03-29T19:44:59.428Z,37.60
2019-03-29T19:47:25.662Z,38.90
2019-03-29T19:49:55.114Z,38.30
2019-03-29T19:52:24.884Z,40.23
2019-03-29T19:54:49.503Z,45.03
2019-03-29T19:57:15.648Z,44.50
2019-03-29T19:59:41.767Z,45.57
2019-03-29T20:02:07.796Z,44.20
2019-03-29T20:04:33.843Z,46.80
2019-03-29T20:06:59.896Z,40.90
2019-03-29T20:09:25.879Z,38.80
2019-03-29T20:11:51.921Z,41.87
2019-03-29T20:14:17.944Z,40.60
2019-03-29T20:16:43.982Z,43.20
2019-03-29T20:19:10.105Z,44.00
2019-03-29T20:21:36.128Z,39.27
2019-03-29T20:24:02.113Z,38.30
2019-03-29T20:26:28.202Z,38.70
2019-03-29T20:28:54.249Z,39.40
2019-03-29T20:31:20.248Z,40.70
2019-03-29T20:33:46.285Z,40.07
2019-03-29T20:36:12.278Z,39.70
2019-03-29T20:38:38.291Z,40.10
2019-03-29T20:41:04.447Z,40.53
2019-03-29T20:43:30.500Z,42.13
2019-03-29T20:45:56.462Z,41.23
2019-03-29T20:48:22.517Z,40.17
2019-03-29T20:50:48.573Z,40.20
2019-03-29T20:53:14.588Z,42.60
2019-03-29T20:55:40.668Z,46.00
2019-03-29T20:58:07.042Z,47.33
2019-03-29T21:00:33.171Z,45.40
2019-03-29T21:02:59.535Z,44.00
2019-03-29T21:05:26.098Z,47.23
2019-03-29T21:07:54.857Z,46.13
2019-03-29T21:10:20.279Z,42.70
2019-03-29T21:12:48.466Z,44.30
2019-03-29T21:15:15.655Z,42.70
2019-03-29T21:17:55.599Z,42.97
2019-03-29T21:20:10.708Z,44.87
2019-03-29T21:22:37.286Z,41.87
2019-03-29T21:25:05.374Z,42.07
2019-03-29T21:27:31.465Z,40.30
2019-03-29T21:29:57.537Z,42.30
2019-03-29T21:32:23.549Z,43.23
2019-03-29T21:34:49.623Z,41.27
2019-03-29T21:37:15.817Z,40.20
2019-03-29T21:39:41.926Z,44.60
2019-03-29T21:42:07.996Z,42.93
2019-03-29T21:44:34.331Z,44.20
2019-03-29T21:47:00.436Z,41.93
2019-03-29T21:49:26.588Z,40.30
2019-03-29T21:51:52.612Z,41.60
2019-03-29T21:54:18.689Z,42.47
2019-03-29T21:56:44.703Z,41.77
2019-03-29T21:59:10.748Z,43.77
2019-03-29T22:01:36.983Z,42.13
2019-03-29T22:04:03.112Z,40.90
2019-03-29T22:06:29.151Z,41.17
2019-03-29T22:08:55.128Z,43.97
2019-03-29T22:11:21.742Z,43.77
2019-03-29T22:13:47.811Z,42.60
2019-03-29T22:16:13.863Z,42.90
2019-03-29T22:18:39.936Z,44.37
2019-03-29T22:21:06.142Z,44.67
2019-03-29T22:23:32.148Z,42.33
2019-03-29T22:25:58.128Z,43.80
2019-03-29T22:28:24.130Z,43.73
2019-03-29T22:30:50.112Z,43.07
2019-03-29T22:33:16.152Z,42.50
2019-03-29T22:35:42.143Z,43.10
2019-03-29T22:38:08.135Z,44.00
2019-03-29T22:40:34.169Z,44.40
2019-03-29T22:43:00.185Z,41.03
2019-03-29T22:45:26.185Z,43.53
2019-03-29T22:47:52.172Z,41.47
2019-03-29T22:50:18.157Z,43.17
2019-03-29T22:52:44.207Z,42.50
2019-03-29T22:55:10.211Z,40.33
2019-03-29T22:57:36.198Z,41.53
2019-03-29T23:00:15.025Z,43.60
2019-03-29T23:02:41.274Z,43.30
2019-03-29T23:05:07.577Z,41.40
2019-03-29T23:07:33.559Z,41.20
2019-03-29T23:09:59.571Z,41.67
2019-03-29T23:12:25.571Z,44.27
2019-03-29T23:14:51.652Z,43.60
2019-03-29T23:17:17.667Z,43.30
2019-03-29T23:19:43.636Z,46.10
2019-03-29T23:22:10.816Z,44.37
2019-03-29T23:24:36.807Z,41.20
2019-03-29T23:27:02.801Z,44.70
2019-03-29T23:29:28.767Z,44.23
2019-03-29T23:31:54.790Z,41.67
2019-03-29T23:34:20.910Z,44.33
2019-03-29T23:36:47.182Z,44.27
2019-03-29T23:39:13.217Z,43.73
2019-03-29T23:41:39.248Z,43.60
2019-03-29T23:44:05.241Z,42.63
2019-03-29T23:46:31.231Z,42.90
2019-03-29T23:48:57.268Z,42.90
2019-03-29T23:51:23.238Z,43.10
2019-03-29T23:53:49.236Z,41.63
2019-03-29T23:56:15.225Z,42.30
2019-03-29T23:58:41.994Z,41.03
